createdAt,value
2019-01-25T00:02:00.304Z,97797.91
2019-01-25T00:04:31.047Z,97799.69
2019-01-25T00:07:01.360Z,97796.23
2019-01-25T00:09:31.622Z,97795.41
2019-01-25T00:12:02.503Z,97793.89
2019-01-25T00:14:32.820Z,97794.55
2019-01-25T00:17:03.166Z,97793.81
2019-01-25T00:19:34.585Z,97797.47
2019-01-25T00:22:04.878Z,97802.99
2019-01-25T00:24:35.276Z,97801.91
2019-01-25T00:27:05.728Z,97798.95
2019-01-25T00:29:36.062Z,97803.22
2019-01-25T00:32:06.540Z,97804.55
2019-01-25T00:34:36.673Z,97806.45
2019-01-25T00:37:06.911Z,97800.50
2019-01-25T00:39:38.188Z,97797.39
2019-01-25T00:42:08.359Z,97800.35
2019-01-25T00:44:38.624Z,97798.64
2019-01-25T00:47:08.793Z,97803.34
2019-01-25T00:49:39.469Z,97806.65
2019-01-25T00:52:09.983Z,97812.48
2019-01-25T00:54:41.077Z,97814.81
2019-01-25T00:57:11.515Z,97820.25
2019-01-25T00:59:41.700Z,97816.05
2019-01-25T01:02:12.305Z,97816.28
2019-01-25T01:04:42.617Z,97816.28
2019-01-25T01:07:13.369Z,97811.95
2019-01-25T01:09:43.813Z,97813.79
2019-01-25T01:12:14.180Z,97816.35
2019-01-25T01:14:44.460Z,97819.50
2019-01-25T01:17:14.782Z,97818.18
2019-01-25T01:19:45.061Z,97818.18
2019-01-25T01:22:15.237Z,97817.67
2019-01-25T01:24:45.406Z,97824.80
2019-01-25T01:27:15.632Z,97828.77
2019-01-25T01:29:45.829Z,97832.73
2019-01-25T01:32:16.053Z,97832.89
2019-01-25T01:34:46.294Z,97831.84
2019-01-25T01:37:16.455Z,97835.53
2019-01-25T01:39:46.660Z,97836.04
2019-01-25T01:42:16.819Z,97832.30
2019-01-25T01:44:47.754Z,97836.27
2019-01-25T01:47:18.056Z,97834.28
2019-01-25T01:49:48.424Z,97839.25
2019-01-25T01:52:18.579Z,97834.50
2019-01-25T01:54:48.741Z,97840.45
2019-01-25T01:57:19.158Z,97840.13
2019-01-25T01:59:49.320Z,97844.61
2019-01-25T02:02:19.470Z,97840.64
2019-01-25T02:04:49.744Z,97837.41
2019-01-25T02:07:20.362Z,97838.31
2019-01-25T02:09:50.898Z,97836.98
2019-01-25T02:12:21.187Z,97844.61
2019-01-25T02:14:51.390Z,97833.67
2019-01-25T02:17:21.742Z,97840.51
2019-01-25T02:19:51.934Z,97843.15
2019-01-25T02:22:22.053Z,97847.70
2019-01-25T02:24:52.203Z,97847.91
2019-01-25T02:27:22.478Z,97844.98
2019-01-25T02:29:52.664Z,97844.84
2019-01-25T02:32:22.820Z,97842.86
2019-01-25T02:34:52.960Z,97838.66
2019-01-25T02:37:23.179Z,97840.13
2019-01-25T02:39:53.299Z,97839.32
2019-01-25T02:42:24.535Z,97832.12
2019-01-25T02:44:54.774Z,97831.11
2019-01-25T02:47:25.014Z,97838.88
2019-01-25T02:49:55.113Z,97836.73
2019-01-25T02:52:25.286Z,97835.79
2019-01-25T02:54:55.499Z,97841.08
2019-01-25T02:57:25.832Z,97835.48
2019-01-25T02:59:56.176Z,97841.86
2019-01-25T03:02:26.878Z,97842.59
2019-01-25T03:04:57.272Z,97833.26
2019-01-25T03:07:27.992Z,97841.33
2019-01-25T03:09:58.447Z,97846.48
2019-01-25T03:12:28.724Z,97840.59
2019-01-25T03:14:58.998Z,97843.75
2019-01-25T03:17:29.331Z,97848.22
2019-01-25T03:19:59.498Z,97850.86
2019-01-25T03:22:29.744Z,97851.17
2019-01-25T03:25:00.019Z,97844.48
2019-01-25T03:27:30.257Z,97837.36
2019-01-25T03:30:00.517Z,97845.43
2019-01-25T03:32:31.028Z,97843.69
2019-01-25T03:35:01.417Z,97844.51
2019-01-25T03:37:32.613Z,97853.03
2019-01-25T03:40:02.966Z,97847.31
2019-01-25T03:42:33.115Z,97843.27
2019-01-25T03:45:03.375Z,97846.78
2019-01-25T03:47:33.769Z,97850.30
2019-01-25T03:50:04.854Z,97847.27
2019-01-25T03:52:35.197Z,97845.27
2019-01-25T03:55:09.049Z,97852.14
2019-01-25T03:57:39.414Z,97856.20
2019-01-25T04:00:13.508Z,97850.33
2019-01-25T04:02:43.773Z,97853.02
2019-01-25T04:05:15.499Z,97857.43
2019-01-25T04:07:46.357Z,97860.97
2019-01-25T04:10:19.033Z,97855.98
2019-01-25T04:12:50.163Z,97868.55
2019-01-25T04:15:22.869Z,97871.66
2019-01-25T04:17:53.242Z,97871.27
2019-01-25T04:20:23.744Z,97871.84
2019-01-25T04:22:53.968Z,97880.67
2019-01-25T04:25:24.330Z,97877.16
2019-01-25T04:27:54.852Z,97881.73
2019-01-25T04:30:34.225Z,97885.88
2019-01-25T04:33:05.030Z,97881.04
2019-01-25T04:35:35.605Z,97891.04
2019-01-25T04:38:06.034Z,97894.98
2019-01-25T04:40:36.263Z,97891.84
2019-01-25T04:43:06.944Z,97894.36
2019-01-25T04:45:37.171Z,97902.50
2019-01-25T04:48:13.168Z,97895.63
2019-01-25T04:50:43.613Z,97895.59
2019-01-25T04:53:13.877Z,97893.45
2019-01-25T04:55:44.117Z,97904.69
2019-01-25T04:58:18.777Z,97905.03
2019-01-25T05:00:49.324Z,97904.28
2019-01-25T05:03:19.687Z,97902.36
2019-01-25T05:05:49.881Z,97907.03
2019-01-25T05:08:22.994Z,97906.30
2019-01-25T05:10:53.656Z,97911.63
2019-01-25T05:13:24.067Z,97909.26
2019-01-25T05:15:54.356Z,97915.55
2019-01-25T05:18:24.736Z,97916.06
2019-01-25T05:20:54.902Z,97918.23
2019-01-25T05:23:25.074Z,97921.70
2019-01-25T05:25:55.331Z,97921.84
2019-01-25T05:28:26.115Z,97929.77
2019-01-25T05:31:04.594Z,97928.14
2019-01-25T05:33:34.770Z,97935.05
2019-01-25T05:36:06.174Z,97939.98
2019-01-25T05:38:36.769Z,97940.08
2019-01-25T05:41:07.037Z,97930.26
2019-01-25T05:43:40.031Z,97933.09
2019-01-25T05:46:10.331Z,97932.00
2019-01-25T05:48:40.835Z,97932.23
2019-01-25T05:51:11.519Z,97937.40
2019-01-25T05:53:49.700Z,97941.86
2019-01-25T05:56:20.173Z,97934.28
2019-01-25T05:58:50.374Z,97934.28
2019-01-25T06:01:21.137Z,97938.52
2019-01-25T06:03:51.445Z,97932.88
2019-01-25T06:06:21.699Z,97941.58
2019-01-25T06:08:52.100Z,97937.30
2019-01-25T06:11:22.366Z,97935.13
2019-01-25T06:13:52.653Z,97940.75
2019-01-25T06:16:23.240Z,97940.05
2019-01-25T06:18:53.443Z,97941.70
2019-01-25T06:21:23.737Z,97942.20
2019-01-25T06:23:56.070Z,97942.81
2019-01-25T06:26:26.204Z,97945.00
2019-01-25T06:28:56.546Z,97947.98
2019-01-25T06:31:26.729Z,97954.78
2019-01-25T06:33:56.937Z,97956.70
2019-01-25T06:36:27.199Z,97963.17
2019-01-25T06:38:57.335Z,97956.88
2019-01-25T06:41:27.505Z,97961.16
2019-01-25T06:43:57.713Z,97963.09
2019-01-25T06:46:28.352Z,97963.09
2019-01-25T06:49:00.555Z,97959.25
2019-01-25T06:59:36.376Z,97970.81
2019-01-25T07:02:16.820Z,97980.24
2019-01-25T07:04:48.622Z,97979.84
2019-01-25T07:07:25.253Z,97985.30
2019-01-25T07:09:55.673Z,97988.15
2019-01-25T07:12:26.215Z,98000.83
2019-01-25T07:14:57.064Z,98000.02
2019-01-25T07:17:27.653Z,98011.77
2019-01-25T07:19:57.973Z,98010.34
2019-01-25T07:22:28.792Z,98020.11
2019-01-25T07:24:59.164Z,98016.05
2019-01-25T07:27:29.575Z,98016.26
2019-01-25T07:29:59.978Z,98017.04
2019-01-25T07:32:31.223Z,98018.36
2019-01-25T07:35:02.149Z,98014.49
2019-01-25T07:37:32.925Z,98023.24
2019-01-25T07:40:07.076Z,98026.70
2019-01-25T07:42:37.560Z,98027.00
2019-01-25T07:45:08.304Z,98031.27
2019-01-25T07:47:38.589Z,98032.68
2019-01-25T07:50:09.228Z,98031.96
2019-01-25T07:52:40.183Z,98031.02
2019-01-25T07:55:11.001Z,98034.47
2019-01-25T07:57:41.656Z,98040.23
2019-01-25T08:00:12.426Z,98043.68
2019-01-25T08:02:43.035Z,98041.02
2019-01-25T08:05:13.749Z,98041.73
2019-01-25T08:07:44.321Z,98045.20
2019-01-25T08:10:17.756Z,98044.45
2019-01-25T08:12:48.264Z,98047.81
2019-01-25T08:15:19.827Z,98053.53
2019-01-25T08:17:50.509Z,98050.65
2019-01-25T08:20:21.250Z,98041.66
2019-01-25T08:22:51.712Z,98044.37
2019-01-25T08:25:25.527Z,98045.13
2019-01-25T08:27:56.038Z,98044.97
2019-01-25T08:30:26.820Z,98047.31
2019-01-25T08:32:57.392Z,98050.26
2019-01-25T08:35:28.315Z,98037.50
2019-01-25T08:37:58.695Z,98044.79
2019-01-25T08:40:30.488Z,98040.75
2019-01-25T08:43:00.866Z,98053.58
2019-01-25T08:45:31.408Z,98047.98
2019-01-25T08:48:02.056Z,98045.98
2019-01-25T08:50:32.505Z,98045.48
2019-01-25T08:53:03.206Z,98051.69
2019-01-25T08:55:34.392Z,98055.06
2019-01-25T08:58:05.078Z,98056.27
2019-01-25T09:00:35.911Z,98060.09
2019-01-25T09:03:07.469Z,98063.05
2019-01-25T09:05:38.367Z,98049.46
2019-01-25T09:08:09.594Z,98051.84
2019-01-25T09:10:39.912Z,98052.30
2019-01-25T09:13:10.210Z,98055.36
2019-01-25T09:15:40.450Z,98055.69
2019-01-25T09:18:11.123Z,98062.86
2019-01-25T09:20:41.342Z,98058.80
2019-01-25T09:23:11.625Z,98056.54
2019-01-25T09:25:42.247Z,98057.52
2019-01-25T09:28:12.783Z,98054.20
2019-01-25T09:30:43.110Z,98057.33
2019-01-25T09:33:13.569Z,98058.63
2019-01-25T09:35:43.799Z,98054.34
2019-01-25T09:38:14.128Z,98057.50
2019-01-25T09:40:44.954Z,98058.93
2019-01-25T09:43:15.249Z,98062.14
2019-01-25T09:45:45.491Z,98053.57
2019-01-25T09:48:15.799Z,98062.88
2019-01-25T09:50:52.698Z,98062.65
2019-01-25T09:53:20.986Z,98076.80
2019-01-25T09:55:51.400Z,98072.10
2019-01-25T09:58:21.579Z,98067.64
2019-01-25T10:00:57.032Z,98073.59
2019-01-25T10:03:27.627Z,98077.25
2019-01-25T10:05:58.005Z,98074.47
2019-01-25T10:08:28.625Z,98074.56
2019-01-25T10:10:59.054Z,98071.60
2019-01-25T10:13:29.287Z,98076.81
2019-01-25T10:15:59.821Z,98075.63
2019-01-25T10:18:30.554Z,98086.01
2019-01-25T10:21:01.006Z,98085.06
2019-01-25T10:23:31.188Z,98090.36
2019-01-25T10:26:01.445Z,98086.78
2019-01-25T10:28:31.936Z,98092.83
2019-01-25T10:31:02.518Z,98095.48
2019-01-25T10:33:33.977Z,98084.59
2019-01-25T10:36:04.611Z,98091.98
2019-01-25T10:38:35.042Z,98089.09
2019-01-25T10:41:05.770Z,98087.05
2019-01-25T10:43:36.369Z,98084.94
2019-01-25T10:46:06.756Z,98081.92
2019-01-25T10:48:37.228Z,98075.07
2019-01-25T10:51:07.390Z,98076.54
2019-01-25T10:53:37.807Z,98089.13
2019-01-25T10:56:08.380Z,98080.33
2019-01-25T10:58:38.641Z,98077.24
2019-01-25T11:01:08.840Z,98077.55
2019-01-25T11:03:39.181Z,98071.94
2019-01-25T11:06:09.295Z,98076.34
2019-01-25T11:08:39.435Z,98071.23
2019-01-25T11:11:09.779Z,98071.58
2019-01-25T11:13:40.086Z,98071.22
2019-01-25T11:16:11.975Z,98065.50
2019-01-25T11:18:42.338Z,98056.73
2019-01-25T11:21:12.713Z,98052.89
2019-01-25T11:23:43.454Z,98047.33
2019-01-25T11:26:13.884Z,98049.70
2019-01-25T11:28:44.053Z,98040.08
2019-01-25T11:31:14.329Z,98038.17
2019-01-25T11:33:44.692Z,98038.43
2019-01-25T11:36:15.151Z,98036.56
2019-01-25T11:38:45.900Z,98036.73
2019-01-25T11:41:16.712Z,98041.37
2019-01-25T11:43:47.061Z,98034.92
2019-01-25T11:46:17.500Z,98035.75
2019-01-25T11:48:47.808Z,98042.65
2019-01-25T11:51:19.909Z,98044.00
2019-01-25T11:53:51.000Z,98045.12
2019-01-25T11:56:26.145Z,98044.03
2019-01-25T11:58:56.970Z,98046.73
2019-01-25T12:01:27.289Z,98040.84
2019-01-25T12:03:57.606Z,98031.59
2019-01-25T12:06:28.035Z,98034.95
2019-01-25T12:08:58.919Z,98043.09
2019-01-25T12:11:29.166Z,98042.76
2019-01-25T12:13:59.522Z,98045.88
2019-01-25T12:16:29.874Z,98057.11
2019-01-25T12:19:01.304Z,98057.03
2019-01-25T12:21:31.777Z,98054.25
2019-01-25T12:24:02.812Z,98048.78
2019-01-25T12:26:34.193Z,98040.27
2019-01-25T12:29:04.977Z,98044.84
2019-01-25T12:31:35.406Z,98045.25
2019-01-25T12:34:06.108Z,98033.90
2019-01-25T12:36:36.660Z,98033.90
2019-01-25T12:39:10.889Z,98040.89
2019-01-25T12:41:41.414Z,98037.70
2019-01-25T12:44:12.108Z,98040.76
2019-01-25T12:46:42.751Z,98049.37
2019-01-25T12:49:14.395Z,98044.10
2019-01-25T12:51:55.567Z,98038.41
2019-01-25T12:54:26.120Z,98044.09
2019-01-25T12:56:56.726Z,98040.09
2019-01-25T12:59:27.430Z,98043.86
2019-01-25T13:01:59.314Z,98045.55
2019-01-25T13:04:29.640Z,98038.80
2019-01-25T13:07:00.532Z,98044.62
2019-01-25T13:09:31.074Z,98049.14
2019-01-25T13:12:01.872Z,98049.22
2019-01-25T13:14:32.985Z,98051.36
2019-01-25T13:17:03.701Z,98054.31
2019-01-25T13:19:34.807Z,98055.61
2019-01-25T13:22:05.804Z,98052.07
2019-01-25T13:24:36.435Z,98054.23
2019-01-25T13:27:07.247Z,98053.94
2019-01-25T13:29:37.657Z,98045.41
2019-01-25T13:32:08.391Z,98051.23
2019-01-25T13:34:40.116Z,98053.66
2019-01-25T13:37:13.472Z,98056.45
2019-01-25T13:39:44.141Z,98053.92
2019-01-25T13:42:14.931Z,98052.34
2019-01-25T13:44:45.494Z,98050.96
2019-01-25T13:47:16.427Z,98050.02
2019-01-25T13:49:46.799Z,98048.19
2019-01-25T13:52:17.426Z,98044.48
2019-01-25T13:54:48.170Z,98038.47
2019-01-25T13:57:19.150Z,98045.23
2019-01-25T13:59:49.884Z,98045.70
2019-01-25T14:02:20.682Z,98043.55
2019-01-25T14:04:51.139Z,98053.29
2019-01-25T14:07:21.941Z,98049.95
2019-01-25T14:09:52.884Z,98055.16
2019-01-25T14:12:23.623Z,98063.36
2019-01-25T14:14:54.483Z,98056.62
2019-01-25T14:17:25.071Z,98071.65
2019-01-25T14:19:55.996Z,98069.68
2019-01-25T14:22:26.371Z,98078.51
2019-01-25T14:24:58.507Z,98076.30
2019-01-25T14:27:28.906Z,98079.99
2019-01-25T14:29:59.552Z,98081.77
2019-01-25T14:32:30.343Z,98076.40
2019-01-25T14:35:01.341Z,98070.83
2019-01-25T14:37:32.356Z,98060.67
2019-01-25T14:40:03.161Z,98061.78
2019-01-25T14:42:33.595Z,98071.02
2019-01-25T14:45:04.119Z,98062.45
2019-01-25T14:47:34.566Z,98060.01
2019-01-25T14:50:06.978Z,98060.52
2019-01-25T14:52:37.622Z,98067.76
2019-01-25T14:55:08.547Z,98066.77
2019-01-25T14:57:38.867Z,98059.80
2019-01-25T15:00:10.032Z,98063.29
2019-01-25T15:02:40.917Z,98071.15
2019-01-25T15:05:14.866Z,98067.97
2019-01-25T15:07:45.438Z,98066.83
2019-01-25T15:10:20.419Z,98077.81
2019-01-25T15:12:52.361Z,98079.23
2019-01-25T15:15:23.407Z,98080.64
2019-01-25T15:17:54.225Z,98090.15
2019-01-25T15:20:27.112Z,98083.69
2019-01-25T15:22:57.958Z,98090.45
2019-01-25T15:25:29.126Z,98083.54
2019-01-25T15:27:59.732Z,98087.23
2019-01-25T15:30:32.662Z,98089.95
2019-01-25T15:33:03.287Z,98089.70
2019-01-25T15:35:34.274Z,98091.16
2019-01-25T15:38:04.611Z,98091.21
2019-01-25T15:40:35.805Z,98090.20
2019-01-25T15:43:06.414Z,98089.64
2019-01-25T15:45:36.817Z,98092.62
2019-01-25T15:48:07.573Z,98087.97
2019-01-25T15:50:38.079Z,98089.78
2019-01-25T15:53:08.452Z,98085.48
2019-01-25T15:55:38.943Z,98087.81
2019-01-25T15:58:09.376Z,98087.39
2019-01-25T16:00:39.905Z,98096.31
2019-01-25T16:03:10.832Z,98102.11
2019-01-25T16:05:41.538Z,98099.17
2019-01-25T16:08:12.211Z,98095.59
2019-01-25T16:10:42.818Z,98095.75
2019-01-25T16:13:13.467Z,98101.73
2019-01-25T16:15:44.019Z,98098.73
2019-01-25T16:18:14.627Z,98105.00
2019-01-25T16:20:45.422Z,98109.84
2019-01-25T16:23:15.775Z,98115.07
2019-01-25T16:25:46.444Z,98122.69
2019-01-25T16:28:17.875Z,98125.84
2019-01-25T16:30:48.258Z,98133.91
2019-01-25T16:33:18.662Z,98129.32
2019-01-25T16:35:48.865Z,98127.02
2019-01-25T16:38:19.615Z,98131.28
2019-01-25T16:40:50.023Z,98113.94
2019-01-25T16:43:23.070Z,98113.88
2019-01-25T16:45:53.342Z,98119.09
2019-01-25T16:48:23.791Z,98110.89
2019-01-25T16:50:54.510Z,98116.53
2019-01-25T16:53:24.953Z,98121.02
2019-01-25T16:55:55.126Z,98114.62
2019-01-25T16:58:25.453Z,98120.25
2019-01-25T17:00:55.756Z,98112.55
2019-01-25T17:03:26.472Z,98108.41
2019-01-25T17:05:57.062Z,98110.52
2019-01-25T17:08:27.228Z,98107.95
2019-01-25T17:10:57.468Z,98109.22
2019-01-25T17:13:27.753Z,98114.75
2019-01-25T17:15:58.243Z,98122.67
2019-01-25T17:18:28.800Z,98120.19
2019-01-25T17:20:59.181Z,98114.41
2019-01-25T17:23:30.078Z,98114.81
2019-01-25T17:26:00.451Z,98117.58
2019-01-25T17:28:30.675Z,98127.81
2019-01-25T17:31:01.401Z,98135.73
2019-01-25T17:33:32.927Z,98131.35
2019-01-25T17:36:03.345Z,98144.05
2019-01-25T17:38:34.224Z,98131.13
2019-01-25T17:41:04.871Z,98127.20
2019-01-25T17:43:35.340Z,98131.17
2019-01-25T17:46:05.797Z,98137.64
2019-01-25T17:48:36.232Z,98135.69
2019-01-25T17:51:06.550Z,98136.49
2019-01-25T17:53:37.097Z,98139.48
2019-01-25T17:56:07.721Z,98144.80
2019-01-25T17:58:39.418Z,98139.42
2019-01-25T18:01:10.242Z,98138.91
2019-01-25T18:03:40.694Z,98132.20
2019-01-25T18:06:11.345Z,98134.68
2019-01-25T18:08:41.672Z,98140.48
2019-01-25T18:11:12.018Z,98152.89
2019-01-25T18:13:42.620Z,98152.89
2019-01-25T18:16:14.328Z,98153.59
2019-01-25T18:18:46.497Z,98133.48
2019-01-25T18:21:17.185Z,98154.75
2019-01-25T18:23:47.578Z,98151.34
2019-01-25T18:26:21.433Z,98147.86
2019-01-25T18:29:01.196Z,98143.16
2019-01-25T18:31:32.583Z,98142.16
2019-01-25T18:34:02.898Z,98143.09
2019-01-25T18:36:33.223Z,98131.97
2019-01-25T18:39:05.875Z,98139.16
2019-01-25T18:41:36.619Z,98145.27
2019-01-25T18:44:07.763Z,98138.28
2019-01-25T18:46:38.200Z,98137.29
2019-01-25T18:49:08.868Z,98144.52
2019-01-25T18:51:39.364Z,98147.59
2019-01-25T18:54:09.759Z,98144.92
2019-01-25T18:56:40.496Z,98136.44
2019-01-25T18:59:10.997Z,98135.20
2019-01-25T19:01:41.316Z,98123.79
2019-01-25T19:04:12.025Z,98122.79
2019-01-25T19:06:42.460Z,98113.84
2019-01-25T19:09:13.727Z,98119.48
2019-01-25T19:11:43.971Z,98119.91
2019-01-25T19:14:14.427Z,98123.55
2019-01-25T19:16:45.062Z,98120.42
2019-01-25T19:19:15.519Z,98107.64
2019-01-25T19:21:46.035Z,98104.66
2019-01-25T19:24:16.742Z,98092.75
2019-01-25T19:26:47.236Z,98090.25
2019-01-25T19:29:17.747Z,98084.59
2019-01-25T19:31:48.235Z,98080.80
2019-01-25T19:34:18.859Z,98078.95
2019-01-25T19:36:49.605Z,98078.46
2019-01-25T19:39:19.962Z,98085.50
2019-01-25T19:41:50.252Z,98086.95
2019-01-25T19:44:20.822Z,98084.92
2019-01-25T19:46:51.309Z,98091.06
2019-01-25T19:49:21.692Z,98087.83
2019-01-25T19:51:52.195Z,98087.83
2019-01-25T19:54:22.814Z,98078.34
2019-01-25T19:56:53.330Z,98083.33
2019-01-25T19:59:25.234Z,98078.01
2019-01-25T20:01:55.670Z,98085.17
2019-01-25T20:04:26.164Z,98085.35
2019-01-25T20:06:57.195Z,98084.53
2019-01-25T20:09:28.763Z,98082.84
2019-01-25T20:11:59.302Z,98091.12
2019-01-25T20:14:30.063Z,98086.68
2019-01-25T20:17:00.695Z,98087.77
2019-01-25T20:19:34.515Z,98091.52
2019-01-25T20:22:05.148Z,98103.20
2019-01-25T20:24:35.699Z,98103.66
2019-01-25T20:27:06.419Z,98103.90
2019-01-25T20:29:36.690Z,98102.73
2019-01-25T20:32:07.316Z,98105.45
2019-01-25T20:34:38.827Z,98112.03
2019-01-25T20:37:09.221Z,98109.10
2019-01-25T20:39:40.918Z,98112.45
2019-01-25T20:42:11.425Z,98099.16
2019-01-25T20:44:42.350Z,98102.97
2019-01-25T20:47:12.841Z,98105.08
2019-01-25T20:49:43.445Z,98108.28
2019-01-25T20:52:14.157Z,98101.64
2019-01-25T20:54:44.511Z,98105.63
2019-01-25T20:57:15.113Z,98106.66
2019-01-25T20:59:45.638Z,98099.44
2019-01-25T21:02:16.102Z,98092.58
2019-01-25T21:04:46.657Z,98084.14
2019-01-25T21:07:17.257Z,98081.58
2019-01-25T21:09:49.084Z,98082.13
2019-01-25T21:12:19.678Z,98088.00
2019-01-25T21:14:49.956Z,98082.27
2019-01-25T21:17:20.587Z,98070.61
2019-01-25T21:19:51.377Z,98067.13
2019-01-25T21:22:22.133Z,98064.84
2019-01-25T21:24:52.791Z,98055.35
2019-01-25T21:27:23.606Z,98046.50
2019-01-25T21:29:54.092Z,98045.75
2019-01-25T21:32:25.677Z,98041.37
2019-01-25T21:34:56.183Z,98037.83
2019-01-25T21:37:29.688Z,98029.52
2019-01-25T21:40:08.169Z,98029.22
2019-01-25T21:42:33.063Z,98025.63
2019-01-25T21:45:04.812Z,98018.97
2019-01-25T21:47:35.328Z,98025.98
2019-01-25T21:50:08.179Z,98023.84
2019-01-25T21:52:38.559Z,98019.09
2019-01-25T21:55:10.591Z,98018.33
2019-01-25T21:57:41.262Z,98018.96
2019-01-25T22:00:17.898Z,98025.30
2019-01-25T22:02:48.608Z,98018.84
2019-01-25T22:05:22.024Z,98016.63
2019-01-25T22:07:52.431Z,98015.02
2019-01-25T22:10:34.409Z,98016.05
2019-01-25T22:13:05.196Z,98018.72
2019-01-25T22:15:35.604Z,98022.52
2019-01-25T22:18:06.451Z,98023.27
2019-01-25T22:20:36.770Z,98016.63
2019-01-25T22:23:07.224Z,98019.86
2019-01-25T22:25:37.497Z,98019.13
2019-01-25T22:28:08.023Z,98009.39
2019-01-25T22:30:38.887Z,98014.19
2019-01-25T22:33:09.515Z,98002.03
2019-01-25T22:35:39.995Z,98002.03
2019-01-25T22:38:10.504Z,97998.93
2019-01-25T22:40:40.961Z,97995.64
2019-01-25T22:43:11.644Z,97996.25
2019-01-25T22:45:42.161Z,97997.84
2019-01-25T22:48:12.860Z,97990.44
2019-01-25T22:50:43.305Z,97986.50
2019-01-25T22:53:13.539Z,97979.38
2019-01-25T22:55:43.670Z,97975.72
2019-01-25T22:58:14.189Z,97966.65
2019-01-25T23:01:00.724Z,97968.59
2019-01-25T23:03:50.798Z,97966.50
2019-01-25T23:06:33.089Z,97965.44
2019-01-25T23:09:17.863Z,97968.55
2019-01-25T23:11:48.164Z,97973.98
2019-01-25T23:14:18.447Z,97978.84
2019-01-25T23:16:49.695Z,97980.44
2019-01-25T23:19:20.548Z,97976.09
2019-01-25T23:21:53.489Z,97971.95
2019-01-25T23:24:23.946Z,97960.48
2019-01-25T23:26:55.060Z,97957.61
2019-01-25T23:29:25.426Z,97957.45
2019-01-25T23:31:55.753Z,97957.09
2019-01-25T23:34:26.014Z,97957.61
2019-01-25T23:36:56.183Z,97954.42
2019-01-25T23:39:26.459Z,97952.21
2019-01-25T23:41:56.633Z,97945.63
2019-01-25T23:44:27.351Z,97948.38
2019-01-25T23:46:57.612Z,97944.55
2019-01-25T23:49:28.049Z,97934.67
2019-01-25T23:51:58.309Z,97922.41
2019-01-25T23:54:28.623Z,97926.48
2019-01-25T23:56:59.043Z,97922.33
2019-01-25T23:59:29.670Z,97922.23
